createdAt,value
2018-06-15T00:02:14.363Z,3.50
2018-06-15T00:04:46.469Z,3.77
2018-06-15T00:07:18.528Z,4.17
2018-06-15T00:09:50.603Z,3.73
2018-06-15T00:12:22.734Z,3.93
2018-06-15T00:14:55.032Z,4.00
2018-06-15T00:17:27.086Z,4.13
2018-06-15T00:19:59.160Z,3.50
2018-06-15T00:22:31.236Z,4.00
2018-06-15T00:25:03.311Z,4.60
2018-06-15T00:27:35.483Z,4.00
2018-06-15T00:30:08.299Z,3.83
2018-06-15T00:32:40.385Z,3.60
2018-06-15T00:35:12.484Z,3.83
2018-06-15T00:37:44.648Z,3.53
2018-06-15T00:40:16.760Z,4.00
2018-06-15T00:42:48.807Z,3.77
2018-06-15T00:45:20.866Z,3.50
2018-06-15T00:47:52.910Z,3.37
2018-06-15T00:50:24.978Z,4.33
2018-06-15T00:52:57.076Z,4.27
2018-06-15T00:55:29.203Z,3.47
2018-06-15T00:58:01.271Z,3.90
2018-06-15T01:00:33.387Z,3.87
2018-06-15T01:03:05.441Z,3.63
2018-06-15T01:05:37.527Z,3.23
2018-06-15T01:08:09.692Z,3.23
2018-06-15T01:10:41.848Z,3.37
2018-06-15T01:13:13.970Z,3.40
2018-06-15T01:15:46.142Z,3.67
2018-06-15T01:18:18.236Z,3.47
2018-06-15T01:20:50.328Z,3.63
2018-06-15T01:23:22.456Z,3.80
2018-06-15T01:25:54.576Z,4.03
2018-06-15T01:28:26.677Z,3.60
2018-06-15T01:30:58.987Z,3.90
2018-06-15T01:33:31.059Z,4.17
2018-06-15T01:36:03.169Z,4.07
2018-06-15T01:38:35.245Z,4.00
2018-06-15T01:41:07.317Z,4.40
2018-06-15T01:43:39.392Z,4.27
2018-06-15T01:46:11.473Z,4.73
2018-06-15T01:48:43.596Z,4.03
2018-06-15T01:51:15.705Z,3.83
2018-06-15T01:53:47.802Z,4.80
2018-06-15T01:56:19.871Z,4.65
2018-06-15T01:58:52.068Z,4.22
2018-06-15T02:01:24.384Z,4.78
2018-06-15T02:03:56.312Z,4.70
2018-06-15T02:06:28.372Z,4.70
2018-06-15T02:09:00.439Z,5.10
2018-06-15T02:11:32.504Z,4.55
2018-06-15T02:14:04.872Z,4.55
2018-06-15T02:16:37.009Z,4.90
2018-06-15T02:19:09.075Z,5.25
2018-06-15T02:21:41.200Z,4.60
2018-06-15T02:24:13.300Z,4.47
2018-06-15T02:26:45.427Z,5.08
2018-06-15T02:29:17.975Z,4.90
2018-06-15T02:31:50.100Z,4.50
2018-06-15T02:34:22.224Z,4.47
2018-06-15T02:36:54.314Z,5.15
2018-06-15T02:39:26.425Z,4.80
2018-06-15T02:42:05.159Z,4.78
2018-06-15T02:44:37.215Z,4.95
2018-06-15T02:47:09.307Z,5.15
2018-06-15T02:49:41.350Z,5.87
2018-06-15T02:52:13.438Z,5.22
2018-06-15T02:54:45.518Z,5.45
2018-06-15T02:57:17.658Z,4.83
2018-06-15T02:59:49.719Z,5.83
2018-06-15T03:02:21.799Z,5.62
2018-06-15T03:04:53.844Z,4.83
2018-06-15T03:07:27.039Z,5.00
2018-06-15T03:09:59.123Z,5.60
2018-06-15T03:12:31.580Z,5.50
2018-06-15T03:15:03.674Z,5.53
2018-06-15T03:17:36.539Z,4.87
2018-06-15T03:20:08.659Z,6.10
2018-06-15T03:22:40.808Z,5.20
2018-06-15T03:25:13.056Z,5.07
2018-06-15T03:27:45.041Z,5.20
2018-06-15T03:30:17.169Z,5.60
2018-06-15T03:32:49.262Z,5.07
2018-06-15T03:35:21.352Z,5.50
2018-06-15T03:37:53.406Z,5.53
2018-06-15T03:40:25.449Z,5.80
2018-06-15T03:42:57.550Z,5.33
2018-06-15T03:45:29.640Z,4.90
2018-06-15T03:48:01.787Z,5.30
2018-06-15T03:50:33.896Z,5.60
2018-06-15T03:53:06.038Z,5.40
2018-06-15T03:55:38.109Z,4.73
2018-06-15T03:58:10.268Z,5.00
2018-06-15T04:00:42.424Z,4.77
2018-06-15T04:03:14.470Z,5.23
2018-06-15T04:05:46.568Z,4.77
2018-06-15T04:08:19.015Z,5.03
2018-06-15T04:10:51.145Z,4.77
2018-06-15T04:13:23.255Z,4.40
2018-06-15T04:15:55.342Z,4.43
2018-06-15T04:18:27.488Z,4.73
2018-06-15T04:20:59.545Z,4.30
2018-06-15T04:23:31.662Z,4.63
2018-06-15T04:26:03.721Z,4.00
2018-06-15T04:28:35.795Z,4.60
2018-06-15T04:31:07.942Z,5.07
2018-06-15T04:33:39.997Z,4.57
2018-06-15T04:36:12.023Z,4.27
2018-06-15T04:38:44.133Z,4.50
2018-06-15T04:41:16.281Z,4.40
2018-06-15T04:43:48.373Z,4.60
2018-06-15T04:46:20.459Z,4.20
2018-06-15T04:48:52.580Z,4.10
2018-06-15T04:51:24.673Z,4.67
2018-06-15T04:53:56.910Z,4.90
2018-06-15T04:56:29.047Z,4.43
2018-06-15T04:59:01.079Z,4.57
2018-06-15T05:01:33.087Z,4.17
2018-06-15T05:04:05.357Z,4.50
2018-06-15T05:06:37.412Z,4.57
2018-06-15T05:09:10.499Z,4.03
2018-06-15T05:11:42.547Z,4.00
2018-06-15T05:14:15.752Z,4.80
2018-06-15T05:16:47.892Z,4.23
2018-06-15T05:19:19.996Z,4.50
2018-06-15T05:21:52.044Z,4.33
2018-06-15T05:24:24.166Z,4.07
2018-06-15T05:26:56.259Z,4.27
2018-06-15T05:29:28.538Z,4.93
2018-06-15T05:32:01.896Z,5.00
2018-06-15T05:34:33.963Z,3.77
2018-06-15T05:37:07.070Z,3.90
2018-06-15T05:39:39.148Z,5.67
2018-06-15T05:42:11.226Z,5.00
2018-06-15T05:44:43.888Z,5.20
2018-06-15T05:47:15.935Z,5.07
2018-06-15T05:49:48.059Z,5.10
2018-06-15T05:52:20.097Z,4.40
2018-06-15T05:54:52.152Z,4.87
2018-06-15T05:57:24.236Z,5.13
2018-06-15T05:59:56.411Z,4.73
2018-06-15T06:02:28.513Z,4.87
2018-06-15T06:05:00.606Z,4.83
2018-06-15T06:07:32.664Z,5.40
2018-06-15T06:10:04.863Z,5.40
2018-06-15T06:12:37.103Z,4.80
2018-06-15T06:15:09.184Z,5.70
2018-06-15T06:17:41.335Z,5.10
2018-06-15T06:20:13.411Z,5.87
2018-06-15T06:22:45.552Z,4.70
2018-06-15T06:25:17.663Z,5.33
2018-06-15T06:27:49.708Z,5.40
2018-06-15T06:30:21.801Z,5.37
2018-06-15T06:32:53.907Z,5.80
2018-06-15T06:35:26.057Z,5.93
2018-06-15T06:37:58.219Z,5.97
2018-06-15T06:40:30.287Z,6.10
2018-06-15T06:43:02.443Z,6.40
2018-06-15T06:45:34.530Z,5.77
2018-06-15T06:48:06.600Z,5.53
2018-06-15T06:50:38.734Z,6.33
2018-06-15T06:53:10.747Z,5.80
2018-06-15T06:55:42.875Z,5.60
2018-06-15T06:58:14.957Z,6.30
2018-06-15T07:00:47.058Z,6.30
2018-06-15T07:03:19.211Z,5.87
2018-06-15T07:05:51.468Z,5.10
2018-06-15T07:08:23.536Z,5.50
2018-06-15T07:10:55.580Z,5.30
2018-06-15T07:13:27.667Z,5.50
2018-06-15T07:15:59.712Z,5.83
2018-06-15T07:18:32.530Z,5.40
2018-06-15T07:21:04.645Z,4.50
2018-06-15T07:23:36.756Z,5.23
2018-06-15T07:26:08.805Z,4.60
2018-06-15T07:28:40.919Z,4.60
2018-06-15T07:31:12.996Z,5.37
2018-06-15T07:33:45.105Z,4.60
2018-06-15T07:36:17.165Z,5.43
2018-06-15T07:38:49.291Z,5.47
2018-06-15T07:41:21.420Z,4.00
2018-06-15T07:43:53.501Z,5.30
2018-06-15T07:46:25.632Z,4.97
2018-06-15T07:48:57.973Z,4.80
2018-06-15T07:51:30.143Z,4.53
2018-06-15T07:54:02.243Z,4.70
2018-06-15T07:56:34.381Z,5.10
2018-06-15T07:59:06.832Z,4.90
2018-06-15T08:01:38.908Z,4.40
2018-06-15T08:04:11.885Z,4.10
2018-06-15T08:06:44.028Z,4.93
2018-06-15T08:09:16.178Z,4.67
2018-06-15T08:11:48.279Z,4.40
2018-06-15T08:14:20.352Z,4.40
2018-06-15T08:16:52.455Z,3.87
2018-06-15T08:19:24.775Z,3.73
2018-06-15T08:21:56.940Z,4.00
2018-06-15T08:24:29.051Z,3.63
2018-06-15T08:27:01.128Z,3.90
2018-06-15T08:29:33.245Z,3.37
2018-06-15T08:32:05.398Z,3.60
2018-06-15T08:34:37.498Z,3.90
2018-06-15T08:37:09.564Z,3.90
2018-06-15T08:39:41.658Z,4.03
2018-06-15T08:42:13.758Z,4.00
2018-06-15T08:44:45.808Z,3.43
2018-06-15T08:47:17.868Z,3.47
2018-06-15T08:49:49.954Z,2.50
2018-06-15T08:52:22.029Z,2.50
2018-06-15T08:54:54.101Z,3.00
2018-06-15T08:57:26.163Z,2.50
2018-06-15T08:59:58.217Z,3.13
2018-06-15T09:02:30.276Z,3.20
2018-06-15T09:05:02.348Z,2.67
2018-06-15T09:07:34.431Z,3.00
2018-06-15T09:10:06.509Z,3.20
2018-06-15T09:12:38.595Z,3.27
2018-06-15T09:15:10.666Z,2.80
2018-06-15T09:17:42.795Z,2.70
2018-06-15T09:20:14.934Z,2.90
2018-06-15T09:22:47.026Z,2.83
2018-06-15T09:25:19.136Z,3.00
2018-06-15T09:27:51.167Z,3.33
2018-06-15T09:30:23.303Z,3.10
2018-06-15T09:32:55.363Z,3.60
2018-06-15T09:35:27.504Z,3.07
2018-06-15T09:37:59.545Z,2.90
2018-06-15T09:40:31.593Z,2.30
2018-06-15T09:43:03.675Z,3.13
2018-06-15T09:45:36.270Z,2.43
2018-06-15T09:48:08.337Z,3.80
2018-06-15T09:50:40.464Z,3.80
2018-06-15T09:53:12.523Z,3.37
2018-06-15T09:55:44.622Z,3.37
2018-06-15T09:58:16.708Z,3.57
2018-06-15T10:00:49.579Z,3.10
2018-06-15T10:03:21.687Z,2.80
2018-06-15T10:05:53.910Z,3.13
2018-06-15T10:08:25.998Z,3.10
2018-06-15T10:10:58.193Z,2.77
2018-06-15T10:13:30.316Z,2.70
2018-06-15T10:16:02.484Z,4.13
2018-06-15T10:18:34.512Z,3.33
2018-06-15T10:21:06.639Z,3.60
2018-06-15T10:23:38.701Z,3.33
2018-06-15T10:26:10.810Z,4.07
2018-06-15T10:28:42.903Z,4.07
2018-06-15T10:31:15.009Z,3.17
2018-06-15T10:33:47.075Z,2.80
2018-06-15T10:36:19.281Z,3.23
2018-06-15T10:38:51.451Z,2.60
2018-06-15T10:41:23.676Z,2.67
2018-06-15T10:43:55.725Z,3.30
2018-06-15T10:46:27.854Z,2.80
2018-06-15T10:48:59.894Z,3.50
2018-06-15T10:51:32.192Z,3.40
2018-06-15T10:54:04.267Z,3.10
2018-06-15T10:56:36.343Z,3.70
2018-06-15T10:59:08.455Z,3.00
2018-06-15T11:01:40.584Z,3.30
2018-06-15T11:04:12.660Z,3.40
2018-06-15T11:06:44.781Z,3.30
2018-06-15T11:09:16.863Z,3.20
2018-06-15T11:11:48.951Z,3.50
2018-06-15T11:14:21.038Z,2.83
2018-06-15T11:16:53.168Z,3.00
2018-06-15T11:19:25.208Z,3.40
2018-06-15T11:21:57.260Z,2.93
2018-06-15T11:24:29.283Z,3.30
2018-06-15T11:27:01.410Z,2.87
2018-06-15T11:29:33.510Z,3.07
2018-06-15T11:32:05.565Z,2.93
2018-06-15T11:34:37.619Z,2.93
2018-06-15T11:37:09.684Z,2.83
2018-06-15T11:39:41.752Z,2.87
2018-06-15T11:42:13.923Z,2.80
2018-06-15T11:44:46.039Z,2.40
2018-06-15T11:47:18.204Z,3.03
2018-06-15T11:49:50.280Z,2.50
2018-06-15T11:52:22.365Z,2.70
2018-06-15T11:54:54.844Z,2.93
2018-06-15T11:57:26.908Z,3.07
2018-06-15T11:59:58.937Z,3.37
2018-06-15T12:02:31.025Z,2.83
2018-06-15T12:05:03.167Z,3.53
2018-06-15T12:07:35.269Z,2.87
2018-06-15T12:10:07.357Z,2.73
2018-06-15T12:12:39.480Z,3.73
2018-06-15T12:15:11.525Z,3.00
2018-06-15T12:17:43.597Z,2.77
2018-06-15T12:20:15.651Z,2.53
2018-06-15T12:22:49.156Z,2.40
2018-06-15T12:25:23.256Z,2.23
2018-06-15T12:27:55.404Z,2.40
2018-06-15T12:30:27.516Z,2.40
2018-06-15T12:32:59.646Z,2.57
2018-06-15T12:35:32.703Z,2.70
2018-06-15T12:38:04.802Z,2.93
2018-06-15T12:40:36.881Z,2.60
2018-06-15T12:43:09.034Z,2.63
2018-06-15T12:45:41.123Z,2.30
2018-06-15T12:48:13.195Z,2.73
2018-06-15T12:50:45.314Z,2.80
2018-06-15T12:53:17.467Z,3.47
2018-06-15T12:55:49.996Z,2.63
2018-06-15T12:58:22.067Z,2.50
2018-06-15T13:00:54.162Z,2.50
2018-06-15T13:03:26.356Z,2.60
2018-06-15T13:05:58.716Z,2.50
2018-06-15T13:08:30.771Z,3.10
2018-06-15T13:11:02.901Z,2.73
2018-06-15T13:13:34.944Z,2.70
2018-06-15T13:16:07.022Z,2.60
2018-06-15T13:18:39.088Z,3.20
2018-06-15T13:21:11.171Z,3.33
2018-06-15T13:23:43.284Z,2.60
2018-06-15T13:26:15.436Z,2.20
2018-06-15T13:28:47.491Z,2.60
2018-06-15T13:31:19.582Z,2.60
2018-06-15T13:33:51.621Z,2.43
2018-06-15T13:36:24.166Z,2.93
2018-06-15T13:38:56.300Z,2.70
2018-06-15T13:41:29.458Z,3.00
2018-06-15T13:44:01.525Z,2.57
2018-06-15T13:46:33.706Z,2.40
2018-06-15T13:49:05.902Z,2.70
2018-06-15T13:51:38.083Z,2.27
2018-06-15T13:54:10.216Z,2.60
2018-06-15T13:56:42.338Z,2.60
2018-06-15T13:59:14.483Z,2.47
2018-06-15T14:01:46.925Z,2.13
2018-06-15T14:04:19.005Z,2.53
2018-06-15T14:06:51.135Z,2.70
2018-06-15T14:09:23.236Z,2.50
2018-06-15T14:11:55.365Z,2.87
2018-06-15T14:14:27.534Z,2.40
2018-06-15T14:16:59.700Z,2.80
2018-06-15T14:19:31.820Z,2.33
2018-06-15T14:22:03.904Z,2.30
2018-06-15T14:24:36.021Z,2.80
2018-06-15T14:27:08.224Z,2.60
2018-06-15T14:29:40.360Z,3.40
2018-06-15T14:32:12.493Z,2.47
2018-06-15T14:34:44.585Z,2.60
2018-06-15T14:37:16.690Z,2.20
2018-06-15T14:39:48.788Z,2.77
2018-06-15T14:42:20.938Z,2.20
2018-06-15T14:44:53.060Z,2.40
2018-06-15T14:47:25.215Z,2.70
2018-06-15T14:49:57.341Z,2.20
2018-06-15T14:52:29.509Z,2.07
2018-06-15T14:55:01.610Z,2.40
2018-06-15T14:57:33.738Z,2.40
2018-06-15T15:00:05.947Z,3.00
2018-06-15T15:02:38.026Z,2.67
2018-06-15T15:05:10.131Z,2.30
2018-06-15T15:07:42.198Z,2.20
2018-06-15T15:10:14.310Z,2.27
2018-06-15T15:12:46.383Z,2.10
2018-06-15T15:15:18.505Z,3.30
2018-06-15T15:17:50.546Z,3.63
2018-06-15T15:20:22.608Z,2.63
2018-06-15T15:22:54.671Z,2.57
2018-06-15T15:25:26.769Z,3.07
2018-06-15T15:27:58.861Z,3.00
2018-06-15T15:30:30.982Z,2.40
2018-06-15T15:33:03.047Z,3.00
2018-06-15T15:35:35.159Z,3.37
2018-06-15T15:38:07.282Z,2.80
2018-06-15T15:40:39.446Z,2.40
2018-06-15T15:43:11.559Z,2.63
2018-06-15T15:45:43.707Z,2.40
2018-06-15T15:48:15.822Z,2.40
2018-06-15T15:50:47.929Z,2.50
2018-06-15T15:53:20.030Z,2.30
2018-06-15T15:55:52.138Z,2.40
2018-06-15T15:58:24.179Z,2.87
2018-06-15T16:00:56.288Z,2.30
2018-06-15T16:03:28.404Z,2.40
2018-06-15T16:06:00.510Z,2.63
2018-06-15T16:08:32.586Z,2.80
2018-06-15T16:11:04.633Z,2.57
2018-06-15T16:13:36.696Z,2.30
2018-06-15T16:16:09.227Z,2.23
2018-06-15T16:18:41.317Z,2.20
2018-06-15T16:21:13.399Z,2.60
2018-06-15T16:23:45.550Z,2.87
2018-06-15T16:26:17.635Z,2.37
2018-06-15T16:28:49.712Z,2.90
2018-06-15T16:31:21.831Z,2.40
2018-06-15T16:33:54.168Z,2.70
2018-06-15T16:36:26.404Z,2.33
2018-06-15T16:38:58.467Z,2.30
2018-06-15T16:41:30.545Z,2.73
2018-06-15T16:44:02.603Z,2.73
2018-06-15T16:46:34.672Z,2.53
2018-06-15T16:49:06.765Z,2.47
2018-06-15T16:51:38.838Z,2.80
2018-06-15T16:54:10.927Z,2.97
2018-06-15T16:56:43.017Z,2.63
2018-06-15T16:59:15.148Z,2.77
2018-06-15T17:01:47.399Z,2.80
2018-06-15T17:04:19.488Z,2.90
2018-06-15T17:06:51.532Z,2.87
2018-06-15T17:09:23.632Z,2.70
2018-06-15T17:11:55.801Z,2.77
2018-06-15T17:14:27.892Z,2.93
2018-06-15T17:17:00.022Z,2.70
2018-06-15T17:19:32.088Z,3.20
2018-06-15T17:22:04.176Z,3.70
2018-06-15T17:24:36.271Z,2.80
2018-06-15T17:27:08.335Z,2.90
2018-06-15T17:29:40.629Z,2.87
2018-06-15T17:32:12.739Z,3.70
2018-06-15T17:34:45.662Z,2.90
2018-06-15T17:37:17.708Z,3.43
2018-06-15T17:39:49.765Z,2.90
2018-06-15T17:42:21.883Z,3.00
2018-06-15T17:44:53.959Z,2.70
2018-06-15T17:47:26.056Z,2.90
2018-06-15T17:49:58.116Z,2.93
2018-06-15T17:52:30.669Z,3.20
2018-06-15T17:55:02.765Z,2.97
2018-06-15T17:57:35.012Z,2.80
2018-06-15T18:00:07.094Z,3.00
2018-06-15T18:02:39.185Z,3.57
2018-06-15T18:05:11.342Z,3.30
2018-06-15T18:07:43.419Z,4.13
2018-06-15T18:10:15.495Z,4.40
2018-06-15T18:12:47.764Z,5.10
2018-06-15T18:15:19.857Z,3.70
2018-06-15T18:17:51.943Z,3.50
2018-06-15T18:20:24.007Z,3.87
2018-06-15T18:22:56.048Z,3.83
2018-06-15T18:25:28.123Z,3.77
2018-06-15T18:28:00.209Z,3.70
2018-06-15T18:30:32.296Z,3.77
2018-06-15T18:33:04.501Z,3.73
2018-06-15T18:35:36.650Z,3.40
2018-06-15T18:38:08.718Z,4.17
2018-06-15T18:40:40.856Z,3.47
2018-06-15T18:43:12.952Z,3.93
2018-06-15T18:45:45.030Z,4.00
2018-06-15T18:48:17.187Z,4.27
2018-06-15T18:50:49.307Z,3.90
2018-06-15T18:53:21.379Z,4.13
2018-06-15T18:55:53.442Z,4.90
2018-06-15T18:58:25.985Z,4.30
2018-06-15T19:00:58.042Z,4.43
2018-06-15T19:03:30.155Z,4.10
2018-06-15T19:06:02.368Z,4.27
2018-06-15T19:08:34.552Z,4.20
2018-06-15T19:11:06.607Z,4.13
2018-06-15T19:13:38.993Z,4.87
2018-06-15T19:16:11.216Z,3.77
2018-06-15T19:18:43.272Z,4.57
2018-06-15T19:22:39.930Z,4.47
2018-06-15T19:25:12.016Z,4.13
2018-06-15T19:27:44.055Z,5.10
2018-06-15T19:30:16.081Z,5.00
2018-06-15T19:32:48.184Z,4.80
2018-06-15T19:35:20.358Z,5.03
2018-06-15T19:37:52.457Z,5.13
2018-06-15T19:40:24.563Z,5.07
2018-06-15T19:42:56.678Z,5.53
2018-06-15T19:45:28.744Z,5.57
2018-06-15T19:48:00.816Z,5.03
2018-06-15T19:50:32.888Z,5.57
2018-06-15T19:53:04.990Z,5.83
2018-06-15T19:55:37.080Z,5.57
2018-06-15T19:58:09.153Z,6.00
2018-06-15T20:00:41.263Z,5.90
2018-06-15T20:03:13.340Z,5.40
2018-06-15T20:05:45.476Z,4.90
2018-06-15T20:08:17.533Z,5.40
2018-06-15T20:10:49.684Z,6.00
2018-06-15T20:13:21.739Z,5.77
2018-06-15T20:15:53.840Z,5.83
2018-06-15T20:18:25.912Z,4.63
2018-06-15T20:20:58.001Z,6.13
2018-06-15T20:23:30.065Z,5.70
2018-06-15T20:26:02.240Z,4.90
2018-06-15T20:28:34.331Z,5.40
2018-06-15T20:31:06.436Z,5.43
2018-06-15T20:33:38.549Z,5.60
2018-06-15T20:36:10.731Z,5.03
2018-06-15T20:38:42.785Z,5.87
2018-06-15T20:41:14.917Z,4.90
2018-06-15T20:43:47.026Z,5.43
2018-06-15T20:46:19.151Z,5.17
2018-06-15T20:48:51.294Z,5.30
2018-06-15T20:51:23.430Z,6.10
2018-06-15T20:53:55.538Z,5.30
2018-06-15T20:56:27.710Z,6.67
2018-06-15T20:58:59.787Z,6.30
2018-06-15T21:01:31.874Z,5.50
2018-06-15T21:04:04.089Z,6.53
2018-06-15T21:06:36.164Z,6.03
2018-06-15T21:09:09.135Z,5.73
2018-06-15T21:11:41.220Z,5.67
2018-06-15T21:14:13.294Z,5.73
2018-06-15T21:16:45.398Z,6.07
2018-06-15T21:19:17.492Z,6.27
2018-06-15T21:21:50.698Z,6.30
2018-06-15T21:24:22.796Z,6.50
2018-06-15T21:26:54.866Z,6.97
2018-06-15T21:29:26.968Z,6.47
2018-06-15T21:31:59.359Z,5.77
2018-06-15T21:34:31.463Z,6.03
2018-06-15T21:37:03.672Z,6.33
2018-06-15T21:39:35.733Z,6.80
2018-06-15T21:42:07.784Z,6.80
2018-06-15T21:44:39.872Z,7.00
2018-06-15T21:47:11.999Z,6.30
2018-06-15T21:49:44.100Z,6.57
2018-06-15T21:52:16.153Z,7.10
2018-06-15T21:54:48.245Z,6.87
2018-06-15T21:57:20.291Z,6.30
2018-06-15T21:59:52.383Z,6.90
2018-06-15T22:02:24.410Z,7.10
2018-06-15T22:04:56.559Z,6.30
2018-06-15T22:07:28.673Z,7.00
2018-06-15T22:10:00.817Z,6.67
2018-06-15T22:12:32.988Z,6.90
2018-06-15T22:15:05.102Z,7.13
2018-06-15T22:17:37.213Z,7.77
2018-06-15T22:20:09.295Z,6.50
2018-06-15T22:22:41.368Z,7.97
2018-06-15T22:25:13.457Z,7.57
2018-06-15T22:27:45.503Z,7.87
2018-06-15T22:30:17.572Z,7.57
2018-06-15T22:32:49.633Z,7.57
2018-06-15T22:35:21.711Z,8.30
2018-06-15T22:37:53.776Z,7.43
2018-06-15T22:40:25.890Z,7.60
2018-06-15T22:42:57.950Z,7.27
2018-06-15T22:45:30.013Z,7.97
2018-06-15T22:48:02.053Z,7.30
2018-06-15T22:50:34.169Z,8.03
2018-06-15T22:53:06.276Z,8.00
2018-06-15T22:55:38.451Z,9.30
2018-06-15T22:58:10.565Z,9.00
2018-06-15T23:00:42.645Z,10.30
2018-06-15T23:03:14.712Z,8.80
2018-06-15T23:05:46.799Z,9.10
2018-06-15T23:08:18.859Z,8.43
2018-06-15T23:10:50.880Z,8.53
2018-06-15T23:13:22.916Z,7.70
2018-06-15T23:15:55.010Z,8.47
2018-06-15T23:18:27.063Z,9.17
2018-06-15T23:20:59.145Z,8.60
2018-06-15T23:23:31.200Z,9.77
2018-06-15T23:26:03.322Z,8.37
2018-06-15T23:28:35.444Z,9.40
2018-06-15T23:31:07.781Z,7.83
2018-06-15T23:33:39.845Z,8.70
2018-06-15T23:36:13.040Z,8.57
2018-06-15T23:38:45.407Z,8.70
2018-06-15T23:41:17.459Z,9.37
2018-06-15T23:43:49.525Z,9.57
2018-06-15T23:46:21.617Z,9.40
2018-06-15T23:48:53.660Z,10.10
2018-06-15T23:51:25.747Z,9.70
2018-06-15T23:53:57.820Z,8.97
2018-06-15T23:56:29.892Z,9.27
2018-06-15T23:59:01.959Z,9.33
